East McKeesport, Pennsylvania
Current Conditions -  °F | °C
As of 2:53 AM on Friday 24 Oct 2014 (Local Time) from KAGC Reporting Station
Clear Clear  
Wind Chill: 40°   Ceiling: Unl
Heat Index: 45°   Visibility: 10mi
Dew Point: 38°   Wind: 10mph
Humidity: 76%   Direction: 320°NW
Pressure: 30.06"   Gusts: NA
Location:  40.38°N, 79.81°W
Report Text: KAGC 240653Z 32009KT 10SM CLR 07/03 A3006 RMK AO2 SLP187 T00720033
Loading
Personal Weather Stations






























Interactive Weather Map
Tropical Storm Tracking
New forecast layout! Learn more

10-Day Weather Forecast

Advertisements
Track Severe Weather on mobile